createdAt,value
2023-03-18T00:00:14.210Z,995.5
2023-03-18T00:10:20.547Z,995.6
2023-03-18T00:20:26.697Z,995.7
2023-03-18T00:30:32.872Z,995.9
2023-03-18T00:40:38.070Z,995.9
2023-03-18T00:50:44.421Z,996
2023-03-18T01:00:50.580Z,995.8
2023-03-18T01:10:56.710Z,995.9
2023-03-18T01:21:02.908Z,996
2023-03-18T01:41:15.378Z,996
2023-03-18T01:51:21.531Z,996
2023-03-18T02:01:27.718Z,996
2023-03-18T02:11:33.960Z,995.9
2023-03-18T02:21:40.143Z,995.9
2023-03-18T02:31:46.338Z,995.8
2023-03-18T02:41:52.535Z,995.9
2023-03-18T02:51:57.805Z,996
2023-03-18T03:02:04.063Z,996
2023-03-18T03:12:10.268Z,996.1
2023-03-18T03:22:16.448Z,996.2
2023-03-18T03:32:22.622Z,996.3
2023-03-18T03:42:28.833Z,996.4
2023-03-18T03:52:35.086Z,996.4
2023-03-18T04:02:41.321Z,996.5
2023-03-18T04:12:47.465Z,996.4
2023-03-18T04:22:53.676Z,996.4
2023-03-18T04:32:59.886Z,996.4
2023-03-18T04:43:06.086Z,996.4
2023-03-18T04:53:12.294Z,996.4
2023-03-18T05:03:17.555Z,996.5
2023-03-18T05:13:23.752Z,996.5
2023-03-18T05:23:29.951Z,996.6
2023-03-18T05:33:36.163Z,996.6
2023-03-18T05:43:42.362Z,996.6
2023-03-18T05:53:48.630Z,996.6
2023-03-18T06:03:54.787Z,996.7
2023-03-18T06:14:00.980Z,996.8
2023-03-18T06:24:07.325Z,996.8
2023-03-18T06:34:13.380Z,996.8
2023-03-18T06:44:19.581Z,996.9
2023-03-18T06:54:25.781Z,996.9
2023-03-18T07:04:31.987Z,996.9
2023-03-18T07:14:37.258Z,997.1
2023-03-18T07:24:43.503Z,997.2
2023-03-18T07:34:49.656Z,997.2
2023-03-18T07:44:55.860Z,997.2
2023-03-18T07:55:02.066Z,997.3
2023-03-18T08:05:08.278Z,997.3
2023-03-18T08:15:14.484Z,997.3
2023-03-18T08:25:20.722Z,997.5
2023-03-18T08:35:26.884Z,997.4
2023-03-18T08:45:33.108Z,997.4
2023-03-18T08:55:39.541Z,997.3
2023-03-18T09:05:45.568Z,997.4
2023-03-18T09:15:51.920Z,997.5
2023-03-18T09:25:56.964Z,997.4
2023-03-18T09:36:03.240Z,997.3
2023-03-18T09:46:09.388Z,997.4
2023-03-18T09:56:15.578Z,997.4
2023-03-18T10:06:21.784Z,997.3
2023-03-18T10:16:27.997Z,997.4
2023-03-18T10:26:34.245Z,997.3
2023-03-18T10:36:40.391Z,997.3
2023-03-18T10:46:46.640Z,997.3
2023-03-18T10:56:52.884Z,997.3
2023-03-18T11:06:59.041Z,997.2
2023-03-18T11:17:05.289Z,997.1
2023-03-18T11:27:11.438Z,997.2
2023-03-18T11:37:16.698Z,997.1
2023-03-18T11:47:22.876Z,997.1
2023-03-18T11:57:29.082Z,997
2023-03-18T12:07:35.304Z,997.1
2023-03-18T12:17:41.483Z,997
2023-03-18T12:27:47.722Z,996.8
2023-03-18T12:37:53.885Z,996.9
2023-03-18T12:48:00.092Z,996.8
2023-03-18T12:58:06.331Z,996.7
2023-03-18T13:08:12.501Z,996.6
2023-03-18T13:18:18.722Z,996.5
2023-03-18T13:28:24.919Z,996.5
2023-03-18T13:38:31.102Z,996.5
2023-03-18T13:48:36.353Z,996.4
2023-03-18T13:58:42.537Z,996.3
2023-03-18T14:08:48.737Z,996.4
2023-03-18T14:18:54.942Z,996.3
2023-03-18T14:29:01.139Z,996.3
2023-03-18T14:39:07.486Z,996.3
2023-03-18T14:49:13.546Z,996.2
2023-03-18T14:59:19.742Z,996.2
2023-03-18T15:09:25.929Z,996.2
2023-03-18T15:19:32.156Z,996.1
2023-03-18T15:29:38.377Z,996.1
2023-03-18T15:39:44.716Z,996.1
2023-03-18T15:49:50.774Z,996.1
2023-03-18T15:59:56.124Z,996
2023-03-18T16:10:02.375Z,995.9
2023-03-18T16:20:08.565Z,996
2023-03-18T16:30:14.783Z,996
2023-03-18T16:40:20.974Z,996
2023-03-18T16:50:27.205Z,996
2023-03-18T17:00:33.382Z,996
2023-03-18T17:10:39.585Z,996.1
2023-03-18T17:20:45.815Z,996.2
2023-03-18T17:30:52.143Z,996.3
2023-03-18T17:40:58.413Z,996.3
2023-03-18T17:51:04.602Z,996.4
2023-03-18T18:01:10.761Z,996.5
2023-03-18T18:11:16.982Z,996.5
2023-03-18T18:21:22.259Z,996.5
2023-03-18T18:31:28.414Z,996.5
2023-03-18T18:41:34.647Z,996.5
2023-03-18T18:51:40.843Z,996.5
2023-03-18T19:01:47.036Z,996.5
2023-03-18T19:11:53.290Z,996.5
2023-03-18T19:21:59.454Z,996.6
2023-03-18T19:32:05.850Z,996.6
2023-03-18T19:42:12.115Z,996.7
2023-03-18T19:52:18.402Z,996.7
2023-03-18T20:02:24.442Z,996.8
2023-03-18T20:12:29.707Z,996.9
2023-03-18T20:22:35.946Z,997
2023-03-18T20:32:42.127Z,997
2023-03-18T20:42:48.352Z,997.1
2023-03-18T20:52:54.611Z,997.1
2023-03-18T21:03:00.769Z,997.1
2023-03-18T21:13:06.976Z,997.1
2023-03-18T21:23:13.164Z,997.1
2023-03-18T21:33:19.393Z,997.2
2023-03-18T21:43:25.589Z,997.2
2023-03-18T21:53:31.774Z,997.1
2023-03-18T22:03:38.021Z,997.1
2023-03-18T22:13:44.207Z,997
2023-03-18T22:23:49.555Z,997.1
2023-03-18T22:33:55.664Z,997
2023-03-18T22:44:01.868Z,997
2023-03-18T22:54:08.257Z,997.1
2023-03-18T23:04:14.289Z,997.2
2023-03-18T23:14:20.547Z,997.3
2023-03-18T23:24:26.708Z,997.3
2023-03-18T23:34:32.900Z,997.2
2023-03-18T23:44:39.140Z,997.3
2023-03-18T23:54:45.324Z,997.3
